Time;durP1;ratioP1;P1;durP2;ratioP2;P2;SDS_P1;SDS_P2;PMS_P1;PMS_P2;Temp;Humidity;BMP_temperature;BMP_pressure;BME280_temperature;BME280_humidity;BME280_pressure;Samples;Min_cycle;Max_cycle;Signal;HPM_P1;HPM_P2
2024/02/27 00:01:18;;;;;;;7.07;4.47;;;6.80;60.20;;;;;;5094133;28;20200;-68
2024/02/27 00:03:45;;;;;;;6.78;4.78;;;6.80;60.30;;;;;;5094322;28;20276;-68
2024/02/27 00:06:13;;;;;;;8.38;6.03;;;6.80;60.30;;;;;;5094141;28;20247;-68
2024/02/27 00:08:42;;;;;;;6.47;3.88;;;6.80;60.20;;;;;;5094383;28;20194;-68
2024/02/27 00:11:09;;;;;;;8.70;4.80;;;6.80;60.60;;;;;;5093336;28;20685;-68
2024/02/27 00:13:36;;;;;;;5.63;4.63;;;6.80;61.10;;;;;;5094179;28;20276;-68
2024/02/27 00:16:04;;;;;;;6.85;4.53;;;6.90;61.10;;;;;;5093735;28;20224;-69
2024/02/27 00:18:31;;;;;;;5.60;4.32;;;6.80;60.50;;;;;;5094267;28;20193;-69
2024/02/27 00:20:58;;;;;;;7.18;3.90;;;6.90;60.40;;;;;;5093169;28;20220;-68
2024/02/27 00:23:25;;;;;;;8.10;4.88;;;6.80;60.30;;;;;;5093941;28;20193;-68
2024/02/27 00:25:54;;;;;;;7.80;5.80;;;6.80;61.10;;;;;;5093181;28;20197;-69
2024/02/27 00:28:21;;;;;;;13.73;7.50;;;6.80;61.30;;;;;;5093951;28;20178;-68
2024/02/27 00:30:48;;;;;;;8.75;5.35;;;6.80;61.60;;;;;;5093520;28;20213;-68
2024/02/27 00:33:15;;;;;;;5.55;4.53;;;6.90;62.00;;;;;;5093706;28;20192;-68
2024/02/27 00:35:43;;;;;;;13.05;5.18;;;6.90;61.70;;;;;;5090326;28;20186;-68
2024/02/27 00:38:10;;;;;;;8.45;5.28;;;6.90;61.60;;;;;;5073852;28;20186;-66
2024/02/27 00:40:38;;;;;;;8.98;5.15;;;6.90;61.60;;;;;;5073391;28;20735;-66
2024/02/27 00:43:06;;;;;;;11.32;5.38;;;6.90;61.50;;;;;;5073992;28;20230;-68
2024/02/27 00:45:36;;;;;;;12.02;5.85;;;6.90;61.90;;;;;;5073359;28;20201;-68
2024/02/27 00:48:03;;;;;;;11.60;6.43;;;6.90;62.40;;;;;;5073505;28;20190;-69
2024/02/27 00:50:31;;;;;;;11.77;6.00;;;6.90;62.70;;;;;;5076260;28;20205;-69
2024/02/27 00:52:58;;;;;;;8.13;6.07;;;6.90;62.90;;;;;;5093261;28;20594;-69
2024/02/27 00:55:25;;;;;;;8.85;5.35;;;6.90;63.00;;;;;;5084502;28;20277;-68
2024/02/27 00:57:53;;;;;;;7.75;5.70;;;7.00;63.10;;;;;;5073707;28;20194;-68
2024/02/27 01:00:21;;;;;;;8.48;6.30;;;7.00;62.60;;;;;;5073228;28;20194;-69
2024/02/27 01:02:48;;;;;;;7.10;5.55;;;7.00;62.80;;;;;;5073840;28;20212;-69
2024/02/27 01:05:15;;;;;;;5.90;4.60;;;7.00;63.00;;;;;;5079711;28;20185;-69
2024/02/27 01:07:44;;;;;;;6.90;4.90;;;6.90;62.60;;;;;;5080001;28;20196;-68
2024/02/27 01:10:11;;;;;;;6.38;4.40;;;7.00;62.80;;;;;;5079947;28;20599;-69
2024/02/27 01:12:38;;;;;;;5.93;3.92;;;7.00;62.80;;;;;;5079661;28;20280;-68
2024/02/27 01:15:06;;;;;;;7.82;4.72;;;6.90;62.80;;;;;;5079858;28;20185;-68
2024/02/27 01:17:35;;;;;;;6.15;4.60;;;7.00;63.10;;;;;;5079267;28;20273;-68
2024/02/27 01:20:02;;;;;;;8.80;5.53;;;7.00;62.80;;;;;;5079668;28;20268;-69
2024/02/27 01:22:31;;;;;;;5.55;4.53;;;7.00;62.50;;;;;;5079578;28;20197;-68
2024/02/27 01:24:59;;;;;;;8.07;5.07;;;7.10;62.60;;;;;;5079342;28;20644;-68
2024/02/27 01:27:29;;;;;;;8.45;5.97;;;7.00;62.80;;;;;;5079610;28;20300;-68
2024/02/27 01:29:56;;;;;;;8.80;5.72;;;7.00;63.30;;;;;;5079144;28;20269;-69
2024/02/27 01:32:23;;;;;;;7.57;5.75;;;7.00;63.50;;;;;;5079334;28;20279;-68
2024/02/27 01:34:52;;;;;;;5.90;4.53;;;7.00;63.50;;;;;;5079665;28;20201;-67
2024/02/27 01:37:19;;;;;;;8.13;5.22;;;7.00;63.60;;;;;;5079393;28;20736;-67
2024/02/27 01:39:47;;;;;;;7.25;4.63;;;7.00;63.70;;;;;;5079766;28;20588;-67
2024/02/27 01:42:14;;;;;;;9.52;5.40;;;7.00;64.00;;;;;;5079105;28;20226;-67
2024/02/27 01:44:49;;;;;;;7.32;4.53;;;7.00;63.70;;;;;;5079871;28;20198;-67
2024/02/27 01:47:18;;;;;;;5.93;4.07;;;7.00;64.20;;;;;;5059751;28;20539;-67
2024/02/27 01:49:45;;;;;;;6.85;4.38;;;7.00;63.50;;;;;;5059205;28;20197;-67
2024/02/27 01:52:14;;;;;;;6.30;4.60;;;7.00;63.40;;;;;;5076399;28;20217;-67
2024/02/27 01:54:47;;;;;;;5.97;4.57;;;7.00;63.60;;;;;;5078963;28;20197;-67
2024/02/27 01:57:18;;;;;;;6.07;4.10;;;7.00;64.00;;;;;;5079483;28;20225;-67
2024/02/27 01:59:45;;;;;;;6.15;3.90;;;7.00;64.00;;;;;;5078236;28;20194;-67
2024/02/27 02:02:14;;;;;;;9.52;5.32;;;7.00;64.00;;;;;;5079293;28;20190;-66
2024/02/27 02:04:41;;;;;;;8.18;4.22;;;7.00;63.90;;;;;;5078973;28;20582;-67
2024/02/27 02:07:08;;;;;;;8.13;5.80;;;7.00;64.80;;;;;;5078982;28;20671;-67
2024/02/27 02:09:36;;;;;;;8.30;5.50;;;7.00;63.90;;;;;;5079205;28;20602;-67
2024/02/27 02:12:04;;;;;;;9.57;5.43;;;7.00;63.90;;;;;;5079037;28;20213;-67
2024/02/27 02:14:32;;;;;;;10.48;5.20;;;7.00;64.00;;;;;;5077813;28;20224;-66
2024/02/27 02:16:58;;;;;;;9.43;5.50;;;7.00;64.40;;;;;;5073146;28;20197;-67
2024/02/27 02:19:26;;;;;;;15.10;8.18;;;7.00;64.50;;;;;;5075026;28;20566;-67
2024/02/27 02:21:56;;;;;;;10.85;6.03;;;7.10;64.30;;;;;;5077548;28;20196;-67
2024/02/27 02:24:26;;;;;;;7.88;4.55;;;7.10;64.00;;;;;;5095461;28;20178;-67
2024/02/27 02:26:55;;;;;;;8.85;7.10;;;7.10;64.10;;;;;;5095447;28;20276;-67
2024/02/27 02:29:22;;;;;;;10.80;7.03;;;7.10;64.00;;;;;;5094792;28;20190;-67
2024/02/27 02:31:50;;;;;;;9.93;6.30;;;7.00;64.20;;;;;;5081518;28;20679;-67
2024/02/27 02:34:17;;;;;;;11.50;6.78;;;7.10;64.60;;;;;;5076163;28;20194;-67
2024/02/27 02:36:45;;;;;;;8.50;5.65;;;7.00;64.70;;;;;;5075614;28;20194;-67
2024/02/27 02:39:13;;;;;;;7.32;4.65;;;7.00;64.80;;;;;;5076143;28;20198;-67
2024/02/27 02:41:41;;;;;;;11.80;4.75;;;7.00;64.70;;;;;;5085900;28;20213;-67
2024/02/27 02:44:08;;;;;;;7.63;4.45;;;7.00;65.00;;;;;;5095978;28;20178;-67
2024/02/27 02:46:36;;;;;;;7.80;5.10;;;7.00;64.90;;;;;;5095038;28;20192;-67
2024/02/27 02:49:04;;;;;;;11.88;6.95;;;7.00;65.00;;;;;;5095516;28;20193;-67
2024/02/27 02:51:31;;;;;;;11.80;6.30;;;7.00;65.10;;;;;;5095376;28;20213;-67
2024/02/27 02:53:58;;;;;;;7.22;4.80;;;7.00;65.30;;;;;;5081668;28;20190;-67
2024/02/27 02:56:29;;;;;;;6.93;4.78;;;6.90;66.20;;;;;;5076366;28;20202;-67
2024/02/27 02:58:56;;;;;;;7.53;5.47;;;6.90;66.70;;;;;;5095747;28;20200;-67
2024/02/27 03:01:23;;;;;;;6.65;4.45;;;6.90;66.70;;;;;;5095348;28;20197;-67
2024/02/27 03:03:50;;;;;;;7.18;4.97;;;6.90;66.70;;;;;;5095609;28;20628;-67
2024/02/27 03:06:17;;;;;;;6.85;4.75;;;6.90;66.70;;;;;;5094814;28;20185;-67
2024/02/27 03:08:45;;;;;;;6.65;5.10;;;6.90;66.70;;;;;;5095636;28;20199;-67
2024/02/27 03:11:18;;;;;;;7.03;4.72;;;6.90;66.90;;;;;;5074779;28;20210;-67
2024/02/27 03:13:47;;;;;;;7.35;4.50;;;6.90;66.90;;;;;;5074906;28;20644;-67
2024/02/27 03:16:15;;;;;;;8.20;4.72;;;6.90;66.90;;;;;;5074630;28;20281;-67
2024/02/27 03:18:42;;;;;;;6.35;4.05;;;6.90;66.90;;;;;;5074417;28;20273;-70
2024/02/27 03:21:10;;;;;;;5.22;3.78;;;6.90;66.90;;;;;;5074545;28;20218;-67
2024/02/27 03:23:37;;;;;;;5.63;4.20;;;6.90;66.90;;;;;;5074364;28;20652;-67
2024/02/27 03:26:04;;;;;;;6.57;4.20;;;6.90;67.10;;;;;;5074523;28;20186;-67
2024/02/27 03:28:32;;;;;;;6.18;4.90;;;6.90;67.30;;;;;;5074507;28;20212;-67
2024/02/27 03:31:00;;;;;;;6.85;4.43;;;6.90;67.10;;;;;;5074307;28;20226;-68
2024/02/27 03:33:28;;;;;;;6.20;4.63;;;6.90;67.30;;;;;;5074319;28;20182;-67
2024/02/27 03:35:55;;;;;;;5.72;4.18;;;6.90;67.40;;;;;;5074660;28;20191;-67
2024/02/27 03:38:22;;;;;;;8.65;4.03;;;6.90;67.50;;;;;;5074248;28;20283;-67
2024/02/27 03:40:49;;;;;;;7.65;4.82;;;6.90;67.50;;;;;;5074164;28;20190;-67
2024/02/27 03:43:17;;;;;;;7.57;4.50;;;6.80;67.30;;;;;;5074451;28;20220;-68
2024/02/27 03:45:44;;;;;;;10.00;4.38;;;6.80;67.80;;;;;;5073884;28;20635;-67
2024/02/27 03:48:13;;;;;;;7.40;4.93;;;6.80;67.80;;;;;;5074494;28;20191;-67
2024/02/27 03:50:40;;;;;;;8.68;5.15;;;6.80;67.90;;;;;;5074601;28;20271;-67
2024/02/27 03:53:07;;;;;;;8.23;5.63;;;6.80;67.90;;;;;;5074121;28;20344;-67
2024/02/27 03:55:34;;;;;;;6.00;4.43;;;6.80;68.20;;;;;;5088082;28;20196;-68
2024/02/27 03:58:01;;;;;;;8.65;4.95;;;6.80;68.10;;;;;;5094166;28;20194;-67
2024/02/27 04:00:29;;;;;;;6.65;5.57;;;6.90;68.50;;;;;;5094510;28;20197;-67
2024/02/27 04:02:57;;;;;;;6.88;4.65;;;6.90;68.40;;;;;;5094516;28;20283;-67
2024/02/27 04:05:25;;;;;;;9.02;5.53;;;6.80;68.40;;;;;;5094340;28;20272;-67
2024/02/27 04:07:52;;;;;;;8.00;5.55;;;6.90;68.60;;;;;;5093571;28;20268;-68
2024/02/27 04:10:20;;;;;;;6.97;5.03;;;6.90;68.60;;;;;;5094483;28;20189;-67
2024/02/27 04:12:47;;;;;;;7.30;5.57;;;6.90;68.60;;;;;;5094103;28;20220;-67
2024/02/27 04:15:15;;;;;;;8.85;5.53;;;6.90;68.80;;;;;;5093635;28;20217;-67
2024/02/27 04:17:42;;;;;;;9.30;5.38;;;7.00;68.80;;;;;;5094100;28;20185;-67
2024/02/27 04:20:10;;;;;;;6.82;4.65;;;7.00;68.60;;;;;;5086131;28;20182;-67
2024/02/27 04:22:38;;;;;;;8.60;5.68;;;7.00;68.50;;;;;;5073852;28;20202;-67
2024/02/27 04:25:06;;;;;;;9.27;4.90;;;7.00;68.50;;;;;;5073371;28;20197;-67
2024/02/27 04:27:33;;;;;;;8.10;5.00;;;7.00;68.60;;;;;;5073504;28;20193;-67
2024/02/27 04:30:01;;;;;;;6.03;4.80;;;7.00;68.60;;;;;;5073387;28;20229;-67
2024/02/27 04:32:28;;;;;;;5.82;4.45;;;7.00;69.60;;;;;;5080444;28;20221;-67
2024/02/27 04:34:55;;;;;;;12.60;7.40;;;7.10;68.80;;;;;;5093672;28;20275;-67
2024/02/27 04:37:22;;;;;;;8.20;5.15;;;7.10;68.70;;;;;;5093336;28;20193;-67
2024/02/27 04:39:51;;;;;;;8.60;5.88;;;7.10;68.60;;;;;;5093510;28;20208;-67
2024/02/27 04:42:18;;;;;;;8.63;6.00;;;7.10;68.50;;;;;;5093237;28;20229;-67
2024/02/27 04:44:45;;;;;;;8.10;6.10;;;7.10;68.40;;;;;;5092908;28;20272;-67
2024/02/27 04:47:12;;;;;;;10.85;5.85;;;7.10;68.40;;;;;;5093283;28;20185;-67
2024/02/27 04:49:40;;;;;;;6.32;5.18;;;7.20;68.60;;;;;;5093793;28;20542;-67
2024/02/27 04:52:07;;;;;;;8.32;4.75;;;7.20;68.40;;;;;;5093442;28;20229;-67
2024/02/27 04:54:36;;;;;;;7.25;5.00;;;7.20;68.20;;;;;;5093638;28;20194;-67
2024/02/27 04:57:05;;;;;;;7.20;6.03;;;7.20;68.20;;;;;;5073055;28;20190;-67
2024/02/27 04:59:32;;;;;;;8.75;6.05;;;7.20;67.90;;;;;;5073392;28;20243;-67
2024/02/27 05:01:59;;;;;;;7.95;5.55;;;7.10;68.20;;;;;;5073468;28;20289;-67
2024/02/27 05:04:26;;;;;;;6.30;4.80;;;7.10;68.40;;;;;;5073343;28;20201;-67
2024/02/27 05:06:53;;;;;;;7.50;5.28;;;7.10;68.50;;;;;;5073236;28;20196;-67
2024/02/27 05:09:20;;;;;;;7.60;5.45;;;7.10;68.60;;;;;;5073028;28;20182;-67
2024/02/27 05:11:47;;;;;;;6.82;5.75;;;7.10;68.50;;;;;;5072984;28;20218;-67
2024/02/27 05:14:16;;;;;;;7.70;5.88;;;7.20;68.70;;;;;;5072992;28;20641;-67
2024/02/27 05:16:44;;;;;;;7.30;6.35;;;7.20;68.30;;;;;;5073688;28;20193;-67
2024/02/27 05:19:11;;;;;;;8.00;5.60;;;7.10;68.60;;;;;;5073521;28;20281;-67
2024/02/27 05:21:38;;;;;;;8.70;6.40;;;7.10;68.80;;;;;;5088432;28;20520;-67
2024/02/27 05:24:06;;;;;;;10.13;6.93;;;7.10;68.90;;;;;;5093185;28;20554;-67
2024/02/27 05:26:34;;;;;;;8.75;6.05;;;7.00;69.10;;;;;;5093481;28;20185;-67
2024/02/27 05:29:01;;;;;;;10.15;7.05;;;7.10;69.40;;;;;;5093429;28;20193;-67
2024/02/27 05:31:31;;;;;;;11.02;7.45;;;7.10;69.40;;;;;;5092597;28;20193;-67
2024/02/27 05:33:59;;;;;;;12.88;7.88;;;7.10;69.50;;;;;;5056708;28;20190;-67
2024/02/27 05:36:27;;;;;;;10.45;6.57;;;7.10;69.40;;;;;;5072707;28;20196;-67
2024/02/27 05:38:55;;;;;;;10.57;8.15;;;7.10;69.10;;;;;;5073079;28;20594;-67
2024/02/27 05:41:23;;;;;;;11.80;7.97;;;7.20;68.90;;;;;;5072503;28;20194;-67
2024/02/27 05:43:51;;;;;;;15.77;8.13;;;7.20;68.90;;;;;;5075612;28;20200;-67
2024/02/27 05:46:24;;;;;;;12.23;8.48;;;7.20;69.50;;;;;;5092886;28;20193;-67
2024/02/27 05:48:52;;;;;;;14.18;8.20;;;7.20;68.40;;;;;;5093186;28;20189;-67
2024/02/27 05:51:20;;;;;;;12.32;8.50;;;7.20;68.60;;;;;;5096295;28;20246;-67
2024/02/27 05:53:48;;;;;;;11.65;8.20;;;7.20;68.50;;;;;;5096596;28;20244;-67
2024/02/27 05:56:16;;;;;;;10.35;7.22;;;7.20;68.40;;;;;;5088283;28;20182;-67
2024/02/27 05:58:43;;;;;;;9.95;7.50;;;7.20;69.00;;;;;;5076602;28;20535;-67
2024/02/27 06:01:11;;;;;;;9.90;7.90;;;7.20;68.10;;;;;;5076524;28;20190;-68
2024/02/27 06:03:38;;;;;;;11.60;7.50;;;7.20;68.00;;;;;;5075920;28;20209;-68
2024/02/27 06:06:08;;;;;;;10.98;7.88;;;7.20;68.10;;;;;;5097103;28;20551;-68
2024/02/27 06:08:35;;;;;;;10.48;8.18;;;7.20;68.10;;;;;;5096027;28;20636;-67
2024/02/27 06:11:02;;;;;;;16.35;8.90;;;7.20;68.10;;;;;;5075430;28;20543;-68
2024/02/27 06:13:29;;;;;;;12.30;8.95;;;7.20;68.20;;;;;;5075067;28;20272;-67
2024/02/27 06:15:57;;;;;;;11.02;7.78;;;7.30;68.20;;;;;;5075064;28;20186;-67
2024/02/27 06:18:24;;;;;;;11.93;8.88;;;7.20;67.90;;;;;;5075601;28;20182;-68
2024/02/27 06:23:37;;;;;;;12.23;8.77;;;7.30;67.80;;;;;;5071576;28;20181;-68
2024/02/27 06:26:07;;;;;;;10.45;7.22;;;7.30;67.70;;;;;;5074697;28;20533;-68
2024/02/27 06:28:35;;;;;;;10.02;8.20;;;7.30;67.60;;;;;;5075492;28;20236;-67
2024/02/27 06:31:02;;;;;;;11.30;8.95;;;7.30;67.70;;;;;;5074948;28;20190;-67
2024/02/27 06:33:29;;;;;;;10.80;8.30;;;7.30;67.90;;;;;;5074677;28;20679;-68
2024/02/27 06:35:55;;;;;;;10.65;7.65;;;7.30;68.30;;;;;;5073652;28;20198;-68
2024/02/27 06:38:23;;;;;;;10.43;8.10;;;7.30;67.70;;;;;;5074874;28;20183;-68
2024/02/27 06:40:51;;;;;;;11.98;9.25;;;7.30;67.70;;;;;;5074936;28;20194;-68
2024/02/27 06:43:18;;;;;;;11.82;8.32;;;7.30;67.90;;;;;;5074352;28;20237;-68
2024/02/27 06:45:45;;;;;;;13.15;9.30;;;7.30;67.50;;;;;;5074532;28;20652;-68
2024/02/27 06:48:14;;;;;;;14.98;8.80;;;7.30;67.50;;;;;;5074949;28;20555;-67
2024/02/27 06:50:42;;;;;;;13.65;9.10;;;7.30;67.50;;;;;;5074564;28;20644;-68
2024/02/27 06:53:09;;;;;;;14.35;9.20;;;7.30;67.50;;;;;;5074399;28;20222;-68
2024/02/27 06:55:37;;;;;;;13.25;8.95;;;7.30;67.60;;;;;;5074533;28;20190;-68
2024/02/27 06:58:06;;;;;;;12.80;9.10;;;7.40;67.30;;;;;;5074609;28;20185;-68
2024/02/27 07:00:33;;;;;;;12.13;8.77;;;7.30;67.20;;;;;;5074217;28;20197;-68
2024/02/27 07:03:02;;;;;;;11.98;9.27;;;7.30;67.30;;;;;;5073721;28;20648;-68
2024/02/27 07:05:29;;;;;;;15.07;9.23;;;7.40;67.60;;;;;;5074170;28;20274;-68
2024/02/27 07:07:56;;;;;;;16.05;10.52;;;7.40;67.60;;;;;;5074374;28;20281;-68
2024/02/27 07:10:24;;;;;;;15.10;11.50;;;7.40;67.80;;;;;;5074693;28;20190;-68
2024/02/27 07:12:51;;;;;;;14.50;11.50;;;7.40;68.00;;;;;;5069620;28;20761;-68
2024/02/27 07:15:20;;;;;;;12.77;10.93;;;7.40;68.10;;;;;;5073445;28;20186;-68
2024/02/27 07:17:48;;;;;;;14.95;10.82;;;7.50;68.60;;;;;;5073791;28;20609;-68
2024/02/27 07:20:15;;;;;;;14.82;10.32;;;7.50;68.10;;;;;;5068496;28;20198;-68
2024/02/27 07:22:42;;;;;;;13.73;9.45;;;7.60;68.10;;;;;;5082946;28;20190;-68
2024/02/27 07:25:09;;;;;;;13.25;8.98;;;7.70;67.80;;;;;;5073722;28;20192;-68
2024/02/27 07:27:37;;;;;;;14.35;9.93;;;7.90;67.50;;;;;;5074104;28;20544;-69
2024/02/27 07:30:05;;;;;;;12.27;9.60;;;8.00;67.30;;;;;;5072981;28;20194;-68
2024/02/27 07:32:34;;;;;;;14.80;10.55;;;8.10;66.90;;;;;;5073643;28;20209;-68
2024/02/27 07:35:01;;;;;;;14.35;9.48;;;8.10;66.90;;;;;;5073540;28;20195;-68
2024/02/27 07:37:29;;;;;;;16.58;10.90;;;8.30;66.90;;;;;;5072903;28;20244;-68
2024/02/27 07:39:56;;;;;;;15.82;10.35;;;8.40;66.20;;;;;;5072880;28;20924;-69
2024/02/27 07:42:23;;;;;;;14.25;9.82;;;8.40;65.20;;;;;;5073157;28;20232;-68
2024/02/27 07:44:50;;;;;;;12.43;10.00;;;8.50;65.10;;;;;;5072510;28;20190;-68
2024/02/27 07:47:17;;;;;;;15.88;11.00;;;8.50;64.90;;;;;;5073579;28;20186;-69
2024/02/27 07:49:48;;;;;;;11.65;9.05;;;8.50;65.60;;;;;;5073093;28;20265;-69
2024/02/27 07:52:15;;;;;;;13.68;10.25;;;8.50;64.70;;;;;;5072731;28;20636;-68
2024/02/27 07:54:43;;;;;;;15.27;9.93;;;8.40;64.30;;;;;;5073242;28;20190;-68
2024/02/27 07:57:10;;;;;;;13.52;10.27;;;8.40;64.30;;;;;;5073780;28;20225;-68
2024/02/27 07:59:37;;;;;;;13.85;10.85;;;8.30;64.50;;;;;;5073747;28;20578;-68
2024/02/27 08:02:04;;;;;;;13.18;10.35;;;8.30;64.80;;;;;;5073995;28;20607;-68
2024/02/27 08:04:31;;;;;;;16.80;10.60;;;8.30;64.90;;;;;;5071623;28;20277;-69
2024/02/27 08:07:00;;;;;;;14.35;10.55;;;8.30;64.60;;;;;;5073195;28;20272;-68
2024/02/27 08:09:27;;;;;;;14.98;10.85;;;8.30;64.90;;;;;;5073334;28;20233;-68
2024/02/27 08:11:54;;;;;;;14.32;11.32;;;8.40;64.60;;;;;;5073659;28;20715;-68
2024/02/27 08:14:21;;;;;;;15.35;10.15;;;8.30;65.00;;;;;;5072748;28;20225;-68
2024/02/27 08:16:48;;;;;;;15.20;9.57;;;8.30;65.30;;;;;;5073854;28;20193;-68
2024/02/27 08:19:15;;;;;;;15.15;9.85;;;8.30;65.40;;;;;;5073708;28;20277;-68
2024/02/27 08:21:42;;;;;;;13.07;9.90;;;8.40;65.50;;;;;;5073454;28;20273;-68
2024/02/27 08:24:12;;;;;;;15.63;10.40;;;8.30;65.30;;;;;;5073343;28;20194;-68
2024/02/27 08:26:42;;;;;;;15.20;11.15;;;8.40;65.10;;;;;;5073602;28;20181;-68
2024/02/27 08:29:09;;;;;;;14.38;10.45;;;8.40;65.10;;;;;;5073576;28;20281;-68
2024/02/27 08:31:36;;;;;;;16.33;11.30;;;8.40;65.10;;;;;;5073338;28;20648;-68
2024/02/27 08:34:04;;;;;;;15.60;10.75;;;8.50;65.20;;;;;;5073231;28;20218;-68
2024/02/27 08:36:32;;;;;;;16.00;11.50;;;8.50;64.90;;;;;;5073340;28;20205;-68
2024/02/27 08:38:59;;;;;;;13.57;9.77;;;8.50;64.90;;;;;;5073440;28;20551;-68
2024/02/27 08:41:27;;;;;;;14.93;11.07;;;8.60;64.70;;;;;;5073155;28;20234;-68
2024/02/27 08:43:54;;;;;;;17.02;11.50;;;8.50;64.40;;;;;;5073604;28;20238;-68
2024/02/27 08:46:22;;;;;;;19.50;11.50;;;8.50;64.30;;;;;;5073454;28;20277;-68
2024/02/27 08:48:50;;;;;;;14.80;11.50;;;8.50;64.40;;;;;;5073348;28;20284;-68
2024/02/27 08:51:17;;;;;;;15.15;10.77;;;8.60;64.60;;;;;;5073149;28;20275;-68
2024/02/27 08:53:46;;;;;;;19.17;11.43;;;8.60;64.40;;;;;;5073246;28;20245;-69
2024/02/27 08:56:13;;;;;;;15.50;11.35;;;8.60;64.50;;;;;;5073391;28;20190;-69
2024/02/27 08:58:42;;;;;;;13.80;10.68;;;8.60;64.40;;;;;;5072999;28;20212;-69
2024/02/27 09:01:10;;;;;;;15.05;12.23;;;8.60;64.50;;;;;;5073053;28;20186;-68
2024/02/27 09:03:37;;;;;;;19.42;11.50;;;8.60;64.20;;;;;;5073231;28;20240;-68
2024/02/27 09:06:05;;;;;;;16.70;11.43;;;8.50;63.90;;;;;;5073286;28;20592;-68
2024/02/27 09:08:32;;;;;;;15.55;11.55;;;8.50;63.80;;;;;;5073387;28;20190;-68
2024/02/27 09:10:59;;;;;;;13.38;9.57;;;8.50;63.30;;;;;;5073253;28;20608;-68
2024/02/27 09:13:26;;;;;;;15.75;11.68;;;8.60;63.50;;;;;;5073153;28;20795;-69
2024/02/27 09:15:54;;;;;;;16.83;11.02;;;8.50;63.40;;;;;;5073068;28;20597;-68
2024/02/27 09:18:21;;;;;;;15.27;11.45;;;8.50;63.50;;;;;;5073145;28;20190;-68
2024/02/27 09:20:48;;;;;;;16.67;10.27;;;8.60;63.30;;;;;;5072685;28;20672;-69
2024/02/27 09:23:15;;;;;;;18.08;11.95;;;8.60;63.40;;;;;;5073073;28;20197;-68
2024/02/27 09:25:42;;;;;;;17.27;11.38;;;8.50;63.40;;;;;;5075721;28;20723;-68
2024/02/27 09:28:10;;;;;;;16.00;11.27;;;8.60;63.40;;;;;;5076816;28;20230;-68
2024/02/27 09:30:37;;;;;;;13.80;11.05;;;8.60;63.30;;;;;;5076986;28;20194;-68
2024/02/27 09:33:06;;;;;;;15.40;10.93;;;8.60;63.10;;;;;;5076882;28;20309;-68
2024/02/27 09:35:33;;;;;;;15.25;11.25;;;8.70;63.20;;;;;;5076898;28;20248;-68
2024/02/27 09:38:00;;;;;;;15.52;10.38;;;8.70;63.30;;;;;;5076601;28;20198;-68
2024/02/27 09:40:27;;;;;;;18.40;11.80;;;8.70;63.20;;;;;;5076323;28;20204;-68
2024/02/27 09:42:56;;;;;;;14.23;10.80;;;8.80;63.20;;;;;;5076823;28;20317;-68
2024/02/27 09:45:26;;;;;;;16.92;11.93;;;8.80;62.90;;;;;;5076940;28;20536;-68
2024/02/27 09:47:54;;;;;;;22.60;11.05;;;8.80;63.00;;;;;;5076356;28;20194;-68
2024/02/27 09:50:24;;;;;;;19.73;12.18;;;8.80;63.30;;;;;;5076251;28;20288;-69
2024/02/27 09:52:51;;;;;;;16.58;11.77;;;8.80;63.70;;;;;;5076647;28;20225;-68
2024/02/27 09:55:20;;;;;;;16.40;11.20;;;8.90;63.50;;;;;;5076651;28;20236;-68
2024/02/27 09:57:48;;;;;;;17.13;13.30;;;8.90;62.90;;;;;;5076473;28;20230;-68
2024/02/27 10:00:16;;;;;;;17.75;11.57;;;8.90;62.60;;;;;;5076029;28;20225;-68
2024/02/27 10:02:46;;;;;;;17.95;12.38;;;8.90;62.80;;;;;;5076430;28;20190;-68
2024/02/27 10:05:16;;;;;;;17.55;12.15;;;8.90;63.00;;;;;;5075948;28;20220;-68
2024/02/27 10:07:48;;;;;;;18.95;11.18;;;9.00;63.30;;;;;;5075956;28;20242;-68
2024/02/27 10:10:16;;;;;;;17.92;11.40;;;9.00;62.50;;;;;;5075890;28;20269;-68
2024/02/27 10:12:43;;;;;;;17.75;12.55;;;9.00;63.00;;;;;;5076176;28;20204;-68
2024/02/27 10:15:10;;;;;;;17.23;11.05;;;9.20;63.00;;;;;;5075740;28;20247;-68
2024/02/27 10:17:38;;;;;;;17.88;11.70;;;9.30;62.40;;;;;;5075754;28;20217;-68
2024/02/27 10:20:06;;;;;;;20.83;13.85;;;9.30;62.30;;;;;;5075637;28;20224;-68
2024/02/27 10:22:33;;;;;;;19.35;12.75;;;9.40;62.50;;;;;;5075839;28;20648;-68
2024/02/27 10:25:10;;;;;;;15.35;12.27;;;9.50;62.90;;;;;;5075980;28;20194;-69
2024/02/27 10:27:38;;;;;;;15.98;11.23;;;9.70;62.90;;;;;;5075962;28;20608;-69
2024/02/27 10:30:08;;;;;;;15.70;10.82;;;9.80;62.70;;;;;;5075749;28;20259;-68
2024/02/27 10:32:36;;;;;;;14.25;10.98;;;9.90;61.90;;;;;;5075853;28;20173;-70
2024/02/27 10:35:04;;;;;;;18.00;12.00;;;10.10;60.50;;;;;;5075732;28;20778;-68
2024/02/27 10:37:32;;;;;;;22.73;14.00;;;10.30;60.10;;;;;;5074509;28;20186;-69
2024/02/27 10:40:00;;;;;;;14.82;11.75;;;10.70;59.50;;;;;;5075610;28;20198;-69
2024/02/27 10:42:30;;;;;;;18.20;11.68;;;11.30;59.60;;;;;;5075713;28;20218;-69
2024/02/27 10:44:58;;;;;;;20.67;14.38;;;12.00;58.40;;;;;;5075402;28;20732;-69
2024/02/27 10:47:26;;;;;;;16.53;12.37;;;12.50;56.90;;;;;;5075235;28;20186;-69
2024/02/27 10:49:54;;;;;;;14.70;12.47;;;13.10;56.50;;;;;;5075113;28;20486;-69
2024/02/27 10:52:24;;;;;;;18.73;13.77;;;13.60;54.00;;;;;;5075058;28;20437;-69
2024/02/27 10:54:51;;;;;;;16.43;12.60;;;13.80;53.00;;;;;;5074958;28;20472;-69
2024/02/27 10:57:18;;;;;;;17.40;12.00;;;13.80;51.00;;;;;;5075131;28;20454;-69
2024/02/27 10:59:47;;;;;;;17.40;12.80;;;13.80;50.00;;;;;;5075268;28;20844;-67
2024/02/27 11:02:18;;;;;;;15.10;12.93;;;13.60;49.90;;;;;;5075262;28;20436;-67
2024/02/27 11:04:47;;;;;;;21.87;14.13;;;13.50;49.90;;;;;;5075294;28;20436;-68
2024/02/27 11:07:17;;;;;;;18.13;12.80;;;13.70;50.60;;;;;;5075291;28;20440;-69
2024/02/27 11:09:45;;;;;;;20.20;10.90;;;13.90;49.30;;;;;;5075272;28;20514;-69
2024/02/27 11:12:15;;;;;;;15.73;12.60;;;13.90;49.90;;;;;;5075205;28;20847;-69
2024/02/27 11:14:46;;;;;;;17.13;13.33;;;13.90;49.80;;;;;;5075043;28;20463;-69
2024/02/27 11:17:20;;;;;;;20.37;13.23;;;13.80;49.40;;;;;;5075119;28;20456;-69
2024/02/27 11:19:49;;;;;;;16.87;13.30;;;13.70;48.80;;;;;;5075066;28;20419;-69
2024/02/27 11:22:18;;;;;;;20.80;15.33;;;13.50;48.90;;;;;;5074519;28;20436;-69
2024/02/27 11:24:47;;;;;;;18.00;14.23;;;13.30;49.50;;;;;;5074650;28;20910;-69
2024/02/27 11:27:19;;;;;;;18.10;13.70;;;13.20;49.40;;;;;;5074826;28;20478;-66
2024/02/27 11:29:47;;;;;;;19.70;15.20;;;13.00;49.80;;;;;;5074520;28;20559;-67
2024/02/27 11:32:16;;;;;;;21.13;15.10;;;12.90;50.10;;;;;;5074716;28;20428;-67
2024/02/27 11:34:43;;;;;;;18.60;15.23;;;12.90;50.60;;;;;;5074568;28;20490;-68
2024/02/27 11:37:14;;;;;;;22.30;13.63;;;12.90;50.60;;;;;;5074653;28;20493;-68
2024/02/27 11:39:41;;;;;;;18.90;13.60;;;13.10;51.10;;;;;;5074616;28;20460;-67
2024/02/27 11:42:19;;;;;;;19.30;13.87;;;13.30;51.10;;;;;;5074515;28;20466;-67
2024/02/27 11:45:07;;;;;;;17.90;14.07;;;13.40;51.00;;;;;;5074549;28;20432;-68
2024/02/27 11:47:37;;;;;;;20.10;14.47;;;13.60;50.50;;;;;;5073880;28;20482;-68
2024/02/27 11:50:06;;;;;;;20.70;13.90;;;13.70;49.50;;;;;;5073951;28;20923;-68
2024/02/27 11:52:35;;;;;;;19.13;14.90;;;13.90;49.40;;;;;;5074481;28;20539;-68
2024/02/27 11:55:08;;;;;;;20.77;15.60;;;14.20;49.90;;;;;;5073928;28;20563;-68
2024/02/27 11:57:36;;;;;;;16.67;14.07;;;14.30;49.40;;;;;;5074045;28;20463;-68
2024/02/27 12:00:14;;;;;;;20.03;13.93;;;14.40;48.90;;;;;;5073897;28;20432;-68
2024/02/27 12:02:46;;;;;;;19.20;15.27;;;14.50;48.50;;;;;;5074235;28;20420;-68
2024/02/27 12:05:14;;;;;;;18.70;14.80;;;14.70;48.30;;;;;;5074386;28;20456;-68
2024/02/27 12:07:41;;;;;;;17.93;13.30;;;15.00;48.40;;;;;;5074370;28;20457;-68
2024/02/27 12:10:14;;;;;;;19.30;14.80;;;15.30;48.40;;;;;;5073957;28;20435;-68
2024/02/27 12:12:41;;;;;;;18.30;13.97;;;15.70;47.50;;;;;;5073681;28;20447;-67
2024/02/27 12:15:10;;;;;;;20.83;15.47;;;16.00;46.40;;;;;;5073196;28;20549;-67
2024/02/27 12:17:37;;;;;;;18.90;15.07;;;16.20;45.30;;;;;;5039935;28;20431;-68
2024/02/27 12:20:09;;;;;;;16.80;13.40;;;16.30;44.50;;;;;;5091783;28;20429;-68
2024/02/27 12:22:36;;;;;;;13.40;11.43;;;16.40;44.60;;;;;;5077413;28;20872;-68
2024/02/27 12:25:04;;;;;;;19.43;14.70;;;16.60;44.60;;;;;;5071229;28;20534;-68
2024/02/27 12:27:31;;;;;;;18.43;13.53;;;16.90;44.10;;;;;;5080578;28;20788;-69
2024/02/27 12:30:00;;;;;;;14.73;12.40;;;17.30;43.50;;;;;;5075478;28;20478;-68
2024/02/27 12:32:27;;;;;;;21.00;13.40;;;17.50;43.50;;;;;;5072173;28;20518;-71
2024/02/27 12:34:55;;;;;;;15.70;13.10;;;17.50;40.80;;;;;;5085205;28;20839;-68
2024/02/27 12:37:23;;;;;;;16.13;13.40;;;17.30;40.50;;;;;;5083202;28;20522;-68
2024/02/27 12:39:51;;;;;;;16.83;13.90;;;17.00;40.60;;;;;;5090190;28;20478;-68
2024/02/27 12:42:19;;;;;;;18.03;14.20;;;16.70;41.10;;;;;;5083085;28;20491;-67
2024/02/27 12:44:47;;;;;;;27.07;16.07;;;16.40;41.70;;;;;;5092388;28;20431;-68
2024/02/27 12:47:15;;;;;;;18.03;14.23;;;16.20;41.70;;;;;;5093336;28;20435;-68
2024/02/27 12:49:42;;;;;;;18.30;14.30;;;15.90;42.60;;;;;;5093782;28;20523;-66
2024/02/27 12:52:16;;;;;;;17.27;12.97;;;15.70;43.10;;;;;;5093360;28;20647;-68